Franciscan 1 — VG2884 — position and weather

sailwx.info

Track history (hours):
 
Tides and Currents Weather Stations Pressure Air Temp Water Temp Dewpoint Dewpoint Depression Visibility Wind Speed Wind Dir Waves Ship Positions

Franciscan 1

Last reported at 2017-Oct-20 04:58 UTC. Time now 2017-Oct-20 05:18 UTC.
Position N 49°18' W 123°01'.

Length 20 m.

Type: Fishing. MMSI: 316031981.

Date/timePositionNaut miles runAvg speedWind from/ knotsBaromVisibWave heightAir tempDewpointWater temp
2017-Oct-20 04:58N 49°18' W 123°01'0 0.0
2017-Oct-20 04:28N 49°18' W 123°01'0 0.0
2017-Oct-20 03:58N 49°18' W 123°01'0 0.0
2017-Oct-20 03:28N 49°18' W 123°01'0 0.0
2017-Oct-20 02:58N 49°18' W 123°01'0 0.0
2017-Oct-20 02:28N 49°18' W 123°01'0 0.0
2017-Oct-20 01:58N 49°18' W 123°01'0 0.0
2017-Oct-20 00:43N 49°18' W 123°01'0 0.0
2017-Oct-20 00:25N 49°18' W 123°01'0 0.0
2017-Oct-19 23:55N 49°18' W 123°01'0 0.0
2017-Oct-19 23:28N 49°18' W 123°01'0 0.0
2017-Oct-19 22:52N 49°18' W 123°01'0 0.0
2017-Oct-19 22:25N 49°18' W 123°01'0 0.0
2017-Oct-19 21:58N 49°18' W 123°01'0 0.0
2017-Oct-19 21:25N 49°18' W 123°01'0 0.0
2017-Oct-19 20:55N 49°18' W 123°01'0 0.0
2017-Oct-19 20:22N 49°18' W 123°01'0 1.3
2017-Oct-19 20:00N 49°18' W 123°02'4 8.2
2017-Oct-19 19:30N 49°19' W 123°08'5 9.2
2017-Oct-19 19:00N 49°18' W 123°15'4 8.5
2017-Oct-19 18:30N 49°14' W 123°18'4 8.7
2017-Oct-19 18:00N 49°10' W 123°19'3 6.2
2017-Oct-19 17:29N 49°07' W 123°17'  
2017-Oct-11 22:38N 49°07' W 123°11'1 4.6
2017-Oct-11 22:28N 49°07' W 123°10'4 3.0
2017-Oct-11 21:14N 49°07' W 123°05'3 8.7
2017-Oct-11 20:56N 49°07' W 123°09'2 0.1
2017-Oct-10 09:13N 49°07' W 123°11'0 0.0
2017-Oct-10 07:25N 49°07' W 123°11'0 0.0
2017-Oct-10 05:55N 49°07' W 123°11'0 0.0
2017-Oct-10 05:25N 49°07' W 123°11'  
Track history (hours):
 
Tides and Currents Weather Stations Pressure Air Temp Water Temp Dewpoint Dewpoint Depression Visibility Wind Speed Wind Dir Waves Ship Positions

Franciscan 1

Last reported at 2017-Oct-20 04:58 UTC. Time now 2017-Oct-20 05:18 UTC.
Position N 49°18' W 123°01'.

Length 20 m.

Type: Fishing. MMSI: 316031981.

Date/timePositionNaut miles runAvg speedWind from/ knotsBaromVisibWave heightAir tempDewpointWater temp
2017-Oct-20 04:58N 49°18' W 123°01'0 0.0
2017-Oct-20 04:28N 49°18' W 123°01'0 0.0
2017-Oct-20 03:58N 49°18' W 123°01'0 0.0
2017-Oct-20 03:28N 49°18' W 123°01'0 0.0
2017-Oct-20 02:58N 49°18' W 123°01'0 0.0
2017-Oct-20 02:28N 49°18' W 123°01'0 0.0
2017-Oct-20 01:58N 49°18' W 123°01'0 0.0
2017-Oct-20 00:43N 49°18' W 123°01'0 0.0
2017-Oct-20 00:25N 49°18' W 123°01'0 0.0
2017-Oct-19 23:55N 49°18' W 123°01'0 0.0
2017-Oct-19 23:28N 49°18' W 123°01'0 0.0
2017-Oct-19 22:52N 49°18' W 123°01'0 0.0
2017-Oct-19 22:25N 49°18' W 123°01'0 0.0
2017-Oct-19 21:58N 49°18' W 123°01'0 0.0
2017-Oct-19 21:25N 49°18' W 123°01'0 0.0
2017-Oct-19 20:55N 49°18' W 123°01'0 0.0
2017-Oct-19 20:22N 49°18' W 123°01'0 1.3
2017-Oct-19 20:00N 49°18' W 123°02'4 8.2
2017-Oct-19 19:30N 49°19' W 123°08'5 9.2
2017-Oct-19 19:00N 49°18' W 123°15'4 8.5
2017-Oct-19 18:30N 49°14' W 123°18'4 8.7
2017-Oct-19 18:00N 49°10' W 123°19'3 6.2
2017-Oct-19 17:29N 49°07' W 123°17'  
2017-Oct-11 22:38N 49°07' W 123°11'1 4.6
2017-Oct-11 22:28N 49°07' W 123°10'4 3.0
2017-Oct-11 21:14N 49°07' W 123°05'3 8.7
2017-Oct-11 20:56N 49°07' W 123°09'2 0.1
2017-Oct-10 09:13N 49°07' W 123°11'0 0.0
2017-Oct-10 07:25N 49°07' W 123°11'0 0.0
2017-Oct-10 05:55N 49°07' W 123°11'0 0.0
2017-Oct-10 05:25N 49°07' W 123°11'  

Dump ship's entire track history